Time;durP1;ratioP1;P1;durP2;ratioP2;P2;SDS_P1;SDS_P2;PMS_P1;PMS_P2;Temp;Humidity;BMP_temperature;BMP_pressure;BME280_temperature;BME280_humidity;BME280_pressure;Samples;Min_cycle;Max_cycle;Signal;HPM_P1;HPM_P2
2021/10/21 00:01:45;;;;;;;66.57;50.58;;;;;;;;;;4951765;29;20043;-68
2021/10/21 00:04:11;;;;;;;77.10;53.13;;;;;;;;;;4955259;29;20090;-68
2021/10/21 00:06:37;;;;;;;73.85;54.38;;;;;;;;;;4939918;29;20047;-68
2021/10/21 00:09:04;;;;;;;78.00;55.35;;;;;;;;;;4936206;29;20032;-68
2021/10/21 00:11:31;;;;;;;73.65;52.63;;;;;;;;;;4948840;29;20401;-68
2021/10/21 00:13:57;;;;;;;73.07;53.40;;;;;;;;;;4955148;29;20046;-68
2021/10/21 00:16:23;;;;;;;73.15;52.47;;;;;;;;;;4953472;29;20036;-68
2021/10/21 00:18:50;;;;;;;68.35;52.05;;;;;;;;;;4955089;29;20062;-68
2021/10/21 00:21:16;;;;;;;67.07;51.47;;;;;;;;;;4945012;29;20417;-68
2021/10/21 00:23:42;;;;;;;67.55;50.58;;;;;;;;;;4937935;29;20130;-68
2021/10/21 00:26:09;;;;;;;68.18;50.03;;;;;;;;;;4946678;29;20058;-68
2021/10/21 00:28:36;;;;;;;67.28;50.67;;;;;;;;;;4942401;29;20040;-68
2021/10/21 00:31:02;;;;;;;65.80;50.33;;;;;;;;;;4943375;29;20103;-69
2021/10/21 00:33:28;;;;;;;64.85;51.88;;;;;;;;;;4947027;29;20039;-67
2021/10/21 00:35:54;;;;;;;66.32;49.95;;;;;;;;;;4954122;29;20043;-67
2021/10/21 00:38:20;;;;;;;69.63;50.05;;;;;;;;;;4955194;29;20039;-67
2021/10/21 00:40:46;;;;;;;65.53;49.85;;;;;;;;;;4953526;29;20055;-68
2021/10/21 00:43:12;;;;;;;67.45;51.78;;;;;;;;;;4954085;29;20174;-67
2021/10/21 00:45:38;;;;;;;69.68;50.33;;;;;;;;;;4953543;29;20047;-68
2021/10/21 00:48:04;;;;;;;64.25;49.72;;;;;;;;;;4955132;29;20130;-68
2021/10/21 00:50:31;;;;;;;68.45;50.08;;;;;;;;;;4953754;29;20050;-67
2021/10/21 00:52:57;;;;;;;73.10;50.08;;;;;;;;;;4954503;29;20095;-67
2021/10/21 00:55:24;;;;;;;64.55;49.53;;;;;;;;;;4953621;29;20043;-67
2021/10/21 00:57:51;;;;;;;62.97;49.95;;;;;;;;;;4939091;29;20073;-67
2021/10/21 01:00:17;;;;;;;70.68;51.30;;;;;;;;;;4944633;29;20070;-67
2021/10/21 01:02:43;;;;;;;63.97;48.08;;;;;;;;;;4957138;28;20035;-67
2021/10/21 01:05:09;;;;;;;73.32;52.40;;;;;;;;;;4957319;29;20110;-67
2021/10/21 01:07:36;;;;;;;71.13;50.20;;;;;;;;;;4958162;29;20074;-67
2021/10/21 01:10:05;;;;;;;70.85;49.80;;;;;;;;;;4957816;29;20062;-67
2021/10/21 01:12:31;;;;;;;76.07;51.47;;;;;;;;;;4937807;29;20035;-67
2021/10/21 01:15:17;;;;;;;70.82;51.40;;;;;;;;;;4939015;29;20406;-67
2021/10/21 01:17:43;;;;;;;71.97;52.33;;;;;;;;;;4936178;29;20039;-67
2021/10/21 01:20:11;;;;;;;71.20;50.03;;;;;;;;;;4956840;29;20134;-67
2021/10/21 01:22:37;;;;;;;69.10;52.28;;;;;;;;;;4951793;29;20041;-67
2021/10/21 01:25:03;;;;;;;78.50;53.60;;;;;;;;;;4956842;29;20114;-67
2021/10/21 01:27:29;;;;;;;68.43;49.20;;;;;;;;;;4940023;29;20089;-67
2021/10/21 01:29:55;;;;;;;63.20;47.42;;;;;;;;;;4956761;29;20106;-67
2021/10/21 01:32:26;;;;;;;68.97;50.22;;;;;;;;;;4956713;29;20035;-67
2021/10/21 01:34:52;;;;;;;66.35;49.30;;;;;;;;;;4957912;29;20050;-67
2021/10/21 01:37:18;;;;;;;70.22;49.58;;;;;;;;;;4940846;29;20055;-67
2021/10/21 01:39:44;;;;;;;65.85;48.78;;;;;;;;;;4938468;29;20494;-67
2021/10/21 01:42:11;;;;;;;68.15;48.28;;;;;;;;;;4953048;29;20035;-67
2021/10/21 01:44:37;;;;;;;62.53;47.03;;;;;;;;;;4957862;29;20120;-67
2021/10/21 01:47:03;;;;;;;58.95;44.38;;;;;;;;;;4957027;29;20114;-67
2021/10/21 01:49:29;;;;;;;57.35;42.17;;;;;;;;;;4957452;29;20054;-67
2021/10/21 01:51:55;;;;;;;57.03;41.40;;;;;;;;;;4944392;29;20039;-67
2021/10/21 01:54:21;;;;;;;54.45;38.60;;;;;;;;;;4939517;29;20036;-68
2021/10/21 01:56:47;;;;;;;52.13;39.10;;;;;;;;;;4937733;29;20046;-67
2021/10/21 01:59:13;;;;;;;49.22;37.28;;;;;;;;;;4941198;29;20070;-67
2021/10/21 02:01:39;;;;;;;51.95;38.10;;;;;;;;;;4948250;29;20027;-67
2021/10/21 02:04:05;;;;;;;49.05;36.58;;;;;;;;;;4957200;29;20532;-67
2021/10/21 02:06:31;;;;;;;51.35;39.00;;;;;;;;;;4956489;29;20054;-67
2021/10/21 02:12:00;;;;;;;51.30;38.70;;;;;;;;;;4955108;29;20117;-67
2021/10/21 02:14:26;;;;;;;48.67;36.85;;;;;;;;;;4955903;28;20588;-67
2021/10/21 02:16:52;;;;;;;50.00;36.97;;;;;;;;;;4956203;28;20035;-67
2021/10/21 02:19:18;;;;;;;50.25;38.33;;;;;;;;;;4956961;29;20054;-67
2021/10/21 02:21:47;;;;;;;47.40;37.95;;;;;;;;;;4943773;29;20432;-67
2021/10/21 02:24:14;;;;;;;50.20;34.30;;;;;;;;;;4937882;29;20407;-67
2021/10/21 02:26:40;;;;;;;49.08;37.05;;;;;;;;;;4942396;29;20485;-68
2021/10/21 02:29:05;;;;;;;47.08;35.22;;;;;;;;;;4954154;29;20054;-68
2021/10/21 02:31:31;;;;;;;45.63;36.58;;;;;;;;;;4955732;29;20477;-68
2021/10/21 02:33:57;;;;;;;49.65;36.60;;;;;;;;;;4939607;29;20393;-67
2021/10/21 02:36:23;;;;;;;49.67;38.45;;;;;;;;;;4955436;29;20081;-67
2021/10/21 02:38:49;;;;;;;49.38;35.40;;;;;;;;;;4956689;29;20043;-67
2021/10/21 02:41:15;;;;;;;43.70;35.55;;;;;;;;;;4955534;29;20114;-67
2021/10/21 02:43:42;;;;;;;44.97;34.28;;;;;;;;;;4956601;29;20045;-67
2021/10/21 02:46:08;;;;;;;48.08;35.13;;;;;;;;;;4955356;29;20050;-68
2021/10/21 02:48:34;;;;;;;49.42;36.80;;;;;;;;;;4956591;29;20039;-67
2021/10/21 02:51:00;;;;;;;55.03;37.75;;;;;;;;;;4949516;29;20098;-67
2021/10/21 02:53:27;;;;;;;46.85;34.28;;;;;;;;;;4956501;29;20492;-67
2021/10/21 02:55:55;;;;;;;48.38;34.60;;;;;;;;;;4955529;29;20082;-67
2021/10/21 02:58:20;;;;;;;43.92;32.58;;;;;;;;;;4953967;29;20046;-67
2021/10/21 03:00:47;;;;;;;40.03;31.63;;;;;;;;;;4954995;28;20052;-67
2021/10/21 03:03:13;;;;;;;40.92;32.15;;;;;;;;;;4956498;29;20393;-67
2021/10/21 03:05:39;;;;;;;32.15;25.40;;;;;;;;;;4956347;29;20035;-66
2021/10/21 03:08:05;;;;;;;29.15;23.75;;;;;;;;;;4954920;29;20042;-66
2021/10/21 03:10:30;;;;;;;30.23;25.00;;;;;;;;;;4956151;29;20043;-66
2021/10/21 03:12:56;;;;;;;32.92;24.88;;;;;;;;;;4954800;28;20036;-66
2021/10/21 16:34:22;;;;;;;26.65;23.50;;;16.40;99.90;;;;;;5066813;28;20376;-65
2021/10/21 16:36:47;;;;;;;28.83;22.67;;;16.30;98.90;;;;;;5051134;28;20089;-64
2021/10/21 16:39:13;;;;;;;26.73;22.65;;;16.30;99.20;;;;;;5050099;28;20043;-63
2021/10/21 16:41:40;;;;;;;27.85;23.15;;;16.40;99.10;;;;;;5041199;28;20450;-64
2021/10/21 16:44:08;;;;;;;25.52;22.40;;;16.50;98.90;;;;;;5030180;28;20040;-64
2021/10/21 16:46:35;;;;;;;29.13;24.45;;;16.60;98.60;;;;;;5051575;28;20373;-64
2021/10/21 16:49:01;;;;;;;30.65;24.67;;;16.70;98.60;;;;;;5050255;28;20030;-64
2021/10/21 16:51:27;;;;;;;29.33;24.33;;;16.80;98.30;;;;;;5048978;28;20032;-64
2021/10/21 16:53:56;;;;;;;26.25;22.17;;;16.80;98.10;;;;;;5044430;28;20052;-64
2021/10/21 16:56:22;;;;;;;30.55;22.67;;;16.70;98.30;;;;;;5048402;28;20021;-64
2021/10/21 16:58:50;;;;;;;29.77;23.25;;;16.80;98.00;;;;;;5049893;28;20017;-64
2021/10/21 17:01:16;;;;;;;30.08;24.70;;;16.80;97.80;;;;;;5047257;28;20044;-65
2021/10/21 17:03:41;;;;;;;33.10;25.35;;;16.80;97.60;;;;;;5047858;28;20021;-64
2021/10/21 17:06:07;;;;;;;36.53;24.27;;;16.70;98.10;;;;;;5047279;28;20025;-64
2021/10/21 17:08:33;;;;;;;28.20;25.13;;;16.70;98.10;;;;;;5049885;28;20026;-64
2021/10/21 17:10:58;;;;;;;29.92;24.63;;;16.70;98.20;;;;;;5055798;28;20364;-65
2021/10/21 17:13:24;;;;;;;28.23;25.10;;;16.70;98.30;;;;;;5069574;28;20036;-65
2021/10/21 17:16:07;;;;;;;28.67;25.58;;;16.80;98.30;;;;;;5051095;28;20487;-65
2021/10/21 17:18:34;;;;;;;27.73;24.73;;;16.80;98.40;;;;;;5049296;28;20486;-64
2021/10/21 17:20:59;;;;;;;29.25;23.95;;;16.70;98.20;;;;;;5043370;28;20030;-64
2021/10/21 17:23:27;;;;;;;27.67;23.90;;;16.60;98.40;;;;;;5048408;28;20029;-64
2021/10/21 17:25:53;;;;;;;30.20;23.80;;;16.60;98.10;;;;;;5052897;28;20025;-64
2021/10/21 17:28:18;;;;;;;29.67;24.90;;;16.60;98.40;;;;;;5049449;28;20022;-65
2021/10/21 17:30:44;;;;;;;27.75;24.58;;;16.70;98.30;;;;;;5046528;28;20017;-65
2021/10/21 17:33:10;;;;;;;27.80;24.67;;;16.60;98.20;;;;;;5048506;28;20052;-65
2021/10/21 17:35:36;;;;;;;31.67;25.63;;;16.60;98.40;;;;;;5046626;28;20025;-65
2021/10/21 17:38:01;;;;;;;30.88;25.55;;;16.60;98.40;;;;;;5046429;28;20033;-65
2021/10/21 17:40:27;;;;;;;32.50;26.25;;;16.70;98.20;;;;;;5044426;28;20447;-65
2021/10/21 17:42:57;;;;;;;29.42;25.42;;;16.60;98.20;;;;;;5047042;28;20029;-65
2021/10/21 17:45:24;;;;;;;32.13;25.17;;;16.60;98.10;;;;;;5035775;28;20482;-65
2021/10/21 17:47:50;;;;;;;28.20;24.48;;;16.60;97.90;;;;;;5034703;28;20474;-65
2021/10/21 17:50:15;;;;;;;27.42;24.17;;;16.70;97.80;;;;;;5026817;28;20094;-65
2021/10/21 17:52:42;;;;;;;28.83;25.85;;;16.70;97.70;;;;;;5034920;28;20108;-65
2021/10/21 17:55:08;;;;;;;27.88;24.48;;;16.90;97.50;;;;;;5031651;28;20021;-64
2021/10/21 17:57:33;;;;;;;30.55;25.83;;;16.80;97.30;;;;;;5036273;28;20021;-64
2021/10/21 17:59:59;;;;;;;31.70;26.42;;;16.80;97.40;;;;;;5034707;28;20032;-64
2021/10/21 18:02:25;;;;;;;30.33;26.90;;;16.80;97.60;;;;;;5037427;28;20098;-64
2021/10/21 18:04:51;;;;;;;33.58;27.85;;;16.80;97.50;;;;;;5028455;28;20021;-64
2021/10/21 18:07:16;;;;;;;30.77;27.25;;;16.80;97.30;;;;;;5032011;28;20382;-64
2021/10/21 18:09:43;;;;;;;33.75;27.63;;;16.80;97.30;;;;;;5033536;28;20013;-64
2021/10/21 18:12:10;;;;;;;30.85;25.75;;;16.80;97.20;;;;;;5017290;28;20061;-64
2021/10/21 18:14:37;;;;;;;32.65;26.27;;;16.70;97.40;;;;;;5019708;28;20188;-64
2021/10/21 18:17:03;;;;;;;31.83;27.38;;;16.70;97.60;;;;;;5033883;28;20036;-64
2021/10/21 18:19:28;;;;;;;31.65;27.10;;;16.80;97.50;;;;;;5035269;28;20032;-65
2021/10/21 18:21:55;;;;;;;30.60;25.02;;;16.80;97.50;;;;;;5034279;28;20389;-64
2021/10/21 18:24:25;;;;;;;29.58;25.27;;;16.80;97.40;;;;;;5035284;28;20068;-64
2021/10/21 18:26:55;;;;;;;30.48;25.52;;;16.80;97.30;;;;;;5044273;28;20071;-64
2021/10/21 18:29:21;;;;;;;30.83;25.38;;;16.80;97.10;;;;;;5034882;28;20029;-64
2021/10/21 18:31:50;;;;;;;31.25;25.98;;;16.80;97.30;;;;;;5033961;28;20029;-64
2021/10/21 18:34:16;;;;;;;31.48;26.58;;;16.80;97.20;;;;;;5034378;28;20057;-64
2021/10/21 18:36:42;;;;;;;32.25;25.95;;;16.90;97.00;;;;;;5039553;28;20044;-64
2021/10/21 18:39:10;;;;;;;30.02;25.23;;;19.80;98.10;;;;;;5014635;28;20109;-64
2021/10/21 18:41:39;;;;;;;29.00;24.80;;;19.40;97.80;;;;;;5026078;28;20467;-64
2021/10/21 18:44:09;;;;;;;36.22;27.63;;;19.20;97.70;;;;;;5034679;28;20032;-64
2021/10/21 18:46:35;;;;;;;31.95;25.63;;;18.60;97.30;;;;;;5043096;28;20033;-65
2021/10/21 18:49:01;;;;;;;32.05;28.33;;;18.20;97.40;;;;;;5054505;28;20013;-64
2021/10/21 18:51:27;;;;;;;37.22;30.45;;;18.40;97.80;;;;;;5043139;28;20032;-64
2021/10/21 18:53:52;;;;;;;40.15;30.48;;;18.20;97.70;;;;;;5033069;28;20034;-64
2021/10/21 18:56:19;;;;;;;37.40;28.45;;;18.10;97.80;;;;;;5040613;28;20462;-64
2021/10/21 18:58:49;;;;;;;36.45;29.38;;;18.30;98.00;;;;;;5052886;28;20037;-64
2021/10/21 19:01:15;;;;;;;33.75;27.90;;;18.30;98.30;;;;;;5052325;28;20136;-64
2021/10/21 19:03:40;;;;;;;34.70;27.83;;;18.20;98.30;;;;;;5052828;28;20040;-64
2021/10/21 19:06:07;;;;;;;34.22;27.40;;;18.00;98.70;;;;;;5043222;28;20018;-64
2021/10/21 19:08:36;;;;;;;37.50;28.55;;;18.20;98.60;;;;;;5034098;28;20037;-64
2021/10/21 19:11:04;;;;;;;41.38;31.27;;;17.90;98.70;;;;;;5033253;28;20475;-64
2021/10/21 19:13:31;;;;;;;35.05;29.00;;;18.10;98.70;;;;;;5033909;28;20034;-64
2021/10/21 19:15:57;;;;;;;35.67;31.17;;;18.00;98.40;;;;;;5036074;28;20072;-64
2021/10/21 19:18:23;;;;;;;40.05;31.58;;;18.10;98.40;;;;;;5032763;28;20501;-64
2021/10/21 19:24:11;;;;;;;36.17;28.88;;;18.10;98.20;;;;;;5013870;28;20076;-64
2021/10/21 19:26:38;;;;;;;34.40;30.40;;;18.00;97.80;;;;;;5023338;28;20033;-64
2021/10/21 19:29:04;;;;;;;39.58;30.80;;;17.90;97.80;;;;;;5033763;28;20022;-64
2021/10/21 19:31:32;;;;;;;37.30;31.00;;;17.90;97.50;;;;;;5032884;28;20104;-64
2021/10/21 19:34:00;;;;;;;35.90;31.30;;;18.20;97.50;;;;;;5033481;28;20423;-64
2021/10/21 19:36:26;;;;;;;36.28;31.45;;;18.00;97.50;;;;;;5030172;28;20086;-64
2021/10/21 19:38:53;;;;;;;39.20;31.83;;;17.90;97.40;;;;;;5033338;28;20104;-64
2021/10/21 19:41:19;;;;;;;41.45;33.65;;;18.00;97.50;;;;;;5036290;28;20029;-64
2021/10/21 19:43:44;;;;;;;43.90;36.53;;;18.00;97.70;;;;;;5053363;28;20556;-65
2021/10/21 19:46:47;;;;;;;42.25;35.25;;;17.90;97.50;;;;;;5040391;28;20033;-64
2021/10/21 19:49:13;;;;;;;38.33;33.03;;;17.80;97.40;;;;;;5052345;28;20088;-64
2021/10/21 19:51:39;;;;;;;39.78;31.88;;;17.90;97.60;;;;;;5041216;28;20037;-65
2021/10/21 19:54:05;;;;;;;38.88;31.45;;;17.90;97.50;;;;;;5039633;28;20106;-64
2021/10/21 19:56:31;;;;;;;38.35;30.40;;;17.70;97.40;;;;;;5037204;28;20040;-64
2021/10/21 19:58:57;;;;;;;40.35;32.33;;;17.70;97.10;;;;;;5028966;28;20044;-65
2021/10/21 20:01:23;;;;;;;41.78;33.95;;;17.70;97.30;;;;;;5032876;28;20029;-65
2021/10/21 20:03:48;;;;;;;37.90;32.15;;;17.70;97.40;;;;;;5036537;28;20025;-65
2021/10/21 20:06:14;;;;;;;52.55;33.75;;;17.70;97.30;;;;;;5036064;28;20391;-63
2021/10/21 20:08:40;;;;;;;38.08;31.98;;;17.40;97.60;;;;;;5046177;28;20040;-64
2021/10/21 20:11:07;;;;;;;40.85;33.53;;;17.50;97.70;;;;;;5050161;28;20066;-64
2021/10/21 20:13:33;;;;;;;39.80;32.20;;;17.40;97.60;;;;;;5049034;28;20052;-64
2021/10/21 20:15:59;;;;;;;43.47;33.40;;;17.20;98.10;;;;;;5022815;28;20026;-64
2021/10/21 20:18:25;;;;;;;43.65;33.47;;;17.50;97.80;;;;;;5032126;28;20069;-64
2021/10/21 20:20:51;;;;;;;41.05;32.72;;;17.60;97.50;;;;;;5032094;28;20032;-64
2021/10/21 20:23:18;;;;;;;37.90;32.13;;;17.60;97.40;;;;;;5031464;28;20056;-64
2021/10/21 20:25:45;;;;;;;37.65;31.40;;;17.60;97.20;;;;;;5051910;28;20121;-64
2021/10/21 20:31:33;;;;;;;38.03;31.55;;;17.70;97.20;;;;;;5031512;28;20041;-64
2021/10/21 20:33:59;;;;;;;37.72;30.77;;;17.80;97.00;;;;;;5014593;28;20955;-64
2021/10/21 20:36:25;;;;;;;38.30;33.35;;;17.90;96.70;;;;;;5028851;28;20546;-64
2021/10/21 20:38:51;;;;;;;42.03;34.10;;;17.90;96.50;;;;;;5032899;28;20180;-64
2021/10/21 20:41:17;;;;;;;43.95;33.33;;;17.90;96.80;;;;;;5047382;28;20071;-64
2021/10/21 20:43:43;;;;;;;43.13;33.03;;;18.00;96.70;;;;;;5052586;28;20033;-64
2021/10/21 20:46:09;;;;;;;38.88;33.88;;;18.00;96.40;;;;;;5049615;28;20040;-64
2021/10/21 20:48:34;;;;;;;41.95;32.33;;;18.00;96.40;;;;;;5020311;28;20029;-64
2021/10/21 20:51:00;;;;;;;42.35;34.58;;;17.70;96.40;;;;;;5039154;28;20083;-64
2021/10/21 20:53:26;;;;;;;41.88;32.47;;;17.80;96.70;;;;;;5052416;28;20389;-64
2021/10/21 20:55:52;;;;;;;41.00;32.17;;;17.60;96.50;;;;;;5049729;28;20036;-63
2021/10/21 20:58:18;;;;;;;39.70;32.10;;;17.70;96.60;;;;;;5023296;28;20121;-64
2021/10/21 21:00:44;;;;;;;42.78;33.53;;;17.60;96.10;;;;;;5015313;28;20049;-63
2021/10/21 21:03:10;;;;;;;40.83;32.75;;;17.70;96.50;;;;;;5032560;28;20473;-64
2021/10/21 21:05:36;;;;;;;43.28;33.17;;;17.70;96.20;;;;;;5032674;28;20109;-64
2021/10/21 21:08:01;;;;;;;43.72;33.05;;;17.70;96.20;;;;;;5038386;28;20029;-64
2021/10/21 21:10:27;;;;;;;40.95;32.65;;;17.80;96.20;;;;;;5031725;28;20049;-64
2021/10/21 21:12:53;;;;;;;42.90;33.05;;;17.90;95.90;;;;;;5031000;28;20091;-64
2021/10/21 21:15:19;;;;;;;42.60;33.47;;;17.90;95.70;;;;;;5032021;28;20501;-64
2021/10/21 21:17:44;;;;;;;40.53;33.50;;;17.90;95.80;;;;;;5033252;28;20025;-64
2021/10/21 21:20:10;;;;;;;41.90;33.60;;;18.00;95.80;;;;;;5033657;28;20021;-64
2021/10/21 21:22:38;;;;;;;42.15;33.40;;;18.00;95.60;;;;;;5051573;28;20363;-64
2021/10/21 21:25:06;;;;;;;44.22;35.42;;;17.90;95.80;;;;;;5055929;28;20021;-64
2021/10/21 21:27:31;;;;;;;43.85;33.53;;;17.90;95.70;;;;;;5049596;28;20564;-64
2021/10/21 21:29:57;;;;;;;45.55;36.10;;;17.90;95.70;;;;;;5035683;28;20060;-64
2021/10/21 21:32:23;;;;;;;43.33;34.47;;;18.00;95.70;;;;;;5035295;28;20124;-64
2021/10/21 21:34:48;;;;;;;42.13;34.80;;;17.90;95.90;;;;;;5035756;28;20056;-64
2021/10/21 21:37:14;;;;;;;44.15;36.08;;;17.90;95.80;;;;;;5045928;28;20398;-64
2021/10/21 21:39:40;;;;;;;42.60;35.85;;;17.90;95.70;;;;;;5035035;28;20038;-64
2021/10/21 21:42:05;;;;;;;44.85;35.20;;;17.80;95.70;;;;;;5034853;28;20025;-64
2021/10/21 21:44:32;;;;;;;49.03;36.25;;;17.80;95.80;;;;;;5035280;28;20025;-64
2021/10/21 21:46:58;;;;;;;46.28;34.80;;;17.80;95.90;;;;;;5034645;28;20052;-64
2021/10/21 21:49:24;;;;;;;47.40;36.38;;;17.80;95.50;;;;;;5035111;28;20375;-64
2021/10/21 21:51:50;;;;;;;42.88;33.95;;;17.60;96.40;;;;;;5037921;28;20170;-64
2021/10/21 21:54:15;;;;;;;48.63;36.55;;;17.70;96.40;;;;;;5055368;28;20482;-64
2021/10/21 21:56:43;;;;;;;43.30;34.00;;;17.60;96.40;;;;;;5045041;28;20033;-64
2021/10/21 21:59:09;;;;;;;45.97;35.78;;;17.50;96.30;;;;;;5016797;28;20121;-65
2021/10/21 22:01:35;;;;;;;46.13;35.97;;;17.40;96.30;;;;;;5020560;28;20113;-65
2021/10/21 22:04:00;;;;;;;46.58;36.17;;;17.40;96.50;;;;;;5035713;28;20079;-63
2021/10/21 22:06:26;;;;;;;49.10;36.63;;;17.40;96.60;;;;;;5034865;28;20040;-64
2021/10/21 22:08:52;;;;;;;45.85;35.20;;;17.40;96.30;;;;;;5033356;28;20026;-64
2021/10/21 22:11:17;;;;;;;47.05;35.40;;;17.70;96.20;;;;;;5033617;28;20025;-64
2021/10/21 22:13:43;;;;;;;50.78;35.78;;;17.50;95.70;;;;;;5034653;28;20049;-64
2021/10/21 22:16:11;;;;;;;51.47;37.95;;;17.60;95.90;;;;;;5033767;28;20030;-64
2021/10/21 22:18:36;;;;;;;49.60;37.78;;;17.70;95.60;;;;;;5032846;28;20095;-64
2021/10/21 22:21:04;;;;;;;48.67;37.63;;;17.50;95.40;;;;;;5030629;28;20494;-64
2021/10/21 22:23:33;;;;;;;50.90;39.42;;;17.40;95.20;;;;;;5018939;28;20033;-64
2021/10/21 22:25:59;;;;;;;48.83;38.10;;;17.40;95.20;;;;;;5015867;28;20039;-64
2021/10/21 22:28:26;;;;;;;48.88;35.95;;;17.40;95.30;;;;;;5014021;28;20022;-64
2021/10/21 22:30:52;;;;;;;49.70;36.05;;;17.40;95.20;;;;;;5033804;28;20112;-64
2021/10/21 22:33:19;;;;;;;48.13;36.67;;;17.40;95.30;;;;;;5053197;28;20090;-64
2021/10/21 22:35:45;;;;;;;47.00;35.80;;;17.40;95.70;;;;;;5050020;28;20058;-64
2021/10/21 22:38:12;;;;;;;48.60;37.20;;;17.40;95.30;;;;;;5019559;28;20096;-64
2021/10/21 22:40:37;;;;;;;54.97;37.67;;;17.50;95.30;;;;;;5014894;28;20097;-64
2021/10/21 22:43:04;;;;;;;47.50;37.22;;;17.50;95.20;;;;;;5026764;28;20159;-64
2021/10/21 22:45:30;;;;;;;52.70;38.50;;;17.50;95.20;;;;;;5054453;28;20021;-64
2021/10/21 22:47:57;;;;;;;51.67;36.03;;;17.50;95.20;;;;;;5036904;28;20080;-64
2021/10/21 22:50:23;;;;;;;47.13;35.67;;;17.70;95.00;;;;;;5034241;28;20034;-64
2021/10/21 22:52:49;;;;;;;52.55;37.17;;;17.50;94.90;;;;;;5041415;28;20087;-64
2021/10/21 22:55:15;;;;;;;50.35;37.38;;;17.60;94.90;;;;;;5034589;28;20124;-64
2021/10/21 22:57:50;;;;;;;55.20;39.83;;;17.60;94.70;;;;;;5033343;28;20033;-64
2021/10/21 23:00:16;;;;;;;50.33;37.30;;;17.50;94.70;;;;;;5034269;28;20033;-64
2021/10/21 23:02:48;;;;;;;53.20;38.30;;;17.50;95.00;;;;;;5040675;28;20097;-64
2021/10/21 23:05:14;;;;;;;50.97;38.47;;;17.50;95.10;;;;;;5034383;28;20116;-64
2021/10/21 23:07:40;;;;;;;49.72;38.40;;;17.50;94.80;;;;;;5045221;28;20040;-64
2021/10/21 23:10:06;;;;;;;55.72;40.63;;;17.50;94.70;;;;;;5054374;28;20025;-64
2021/10/21 23:12:32;;;;;;;52.17;40.97;;;17.50;95.00;;;;;;5039787;28;20460;-64
2021/10/21 23:14:58;;;;;;;51.60;38.63;;;17.30;94.70;;;;;;5034020;28;20084;-64
2021/10/21 23:17:23;;;;;;;52.33;39.35;;;17.40;94.80;;;;;;5042270;28;20024;-64
2021/10/21 23:19:50;;;;;;;58.28;39.75;;;17.40;94.80;;;;;;5054187;28;20104;-64
2021/10/21 23:22:16;;;;;;;53.70;39.35;;;17.30;95.00;;;;;;5043112;28;20112;-64
2021/10/21 23:24:41;;;;;;;54.88;41.25;;;17.20;95.00;;;;;;5033961;28;20474;-64
2021/10/21 23:27:08;;;;;;;56.03;39.13;;;17.30;95.00;;;;;;5040198;28;20029;-64
2021/10/21 23:29:34;;;;;;;56.97;39.28;;;17.30;95.00;;;;;;5053802;28;20470;-64
2021/10/21 23:32:00;;;;;;;53.85;39.63;;;17.30;94.90;;;;;;5044517;28;20120;-64
2021/10/21 23:34:25;;;;;;;55.00;39.88;;;17.40;94.70;;;;;;5033335;28;20050;-64
2021/10/21 23:36:51;;;;;;;52.40;38.67;;;17.30;95.00;;;;;;5037312;28;20078;-64
2021/10/21 23:39:17;;;;;;;57.00;39.17;;;17.30;95.00;;;;;;5052322;28;20389;-64
2021/10/21 23:41:43;;;;;;;61.40;39.88;;;17.10;95.20;;;;;;5041675;28;20038;-64
2021/10/21 23:44:08;;;;;;;52.63;37.78;;;17.10;95.00;;;;;;5033044;28;20391;-64
2021/10/21 23:46:34;;;;;;;55.17;39.88;;;17.00;95.50;;;;;;5032626;28;20223;-64
2021/10/21 23:48:59;;;;;;;55.72;39.00;;;17.00;95.80;;;;;;5033646;28;20057;-64
2021/10/21 23:51:26;;;;;;;59.22;40.22;;;17.00;95.90;;;;;;5032579;28;20393;-64
2021/10/21 23:53:51;;;;;;;54.13;38.97;;;17.00;95.70;;;;;;5031867;28;20041;-64
2021/10/21 23:56:17;;;;;;;55.00;40.63;;;16.90;95.60;;;;;;5032812;28;20113;-64
2021/10/21 23:58:42;;;;;;;59.78;41.00;;;16.80;95.80;;;;;;5033138;28;20033;-64
